createdAt,value
2023-04-20T00:00:37.857Z,100819.97
2023-04-20T00:01:40.510Z,100814.75
2023-04-20T00:02:42.749Z,100812.63
2023-04-20T00:03:45.621Z,100814.06
2023-04-20T00:04:47.295Z,100813.25
2023-04-20T00:05:50.305Z,100818.56
2023-04-20T00:06:51.998Z,100818.06
2023-04-20T00:07:55.412Z,100810.84
2023-04-20T00:08:56.980Z,100819.53
2023-04-20T00:09:59.467Z,100819.31
2023-04-20T00:11:02.834Z,100822.03
2023-04-20T00:12:06.006Z,100820.63
2023-04-20T00:13:07.542Z,100817.44
2023-04-20T00:14:10.090Z,100818.72
2023-04-20T00:15:11.754Z,100813.56
2023-04-20T00:16:14.312Z,100818.72
2023-04-20T00:17:15.941Z,100818.84
2023-04-20T00:18:18.485Z,100809.81
2023-04-20T00:19:23.193Z,100818.84
2023-04-20T00:20:25.760Z,100814.94
2023-04-20T00:21:27.813Z,100805.97
2023-04-20T00:22:31.060Z,100817.81
2023-04-20T00:23:32.586Z,100819.16
2023-04-20T00:24:35.442Z,100820.81
2023-04-20T00:25:37.099Z,100806.59
2023-04-20T00:26:41.094Z,100809.28
2023-04-20T00:27:42.666Z,100810.22
2023-04-20T00:28:45.679Z,100810.84
2023-04-20T00:29:47.233Z,100809.31
2023-04-20T00:30:50.237Z,100807.19
2023-04-20T00:31:51.888Z,100805.63
2023-04-20T00:32:54.438Z,100804.91
2023-04-20T00:33:59.148Z,100808.56
2023-04-20T00:35:04.650Z,100815.16
2023-04-20T00:36:06.799Z,100805.94
2023-04-20T00:37:09.690Z,100808.97
2023-04-20T00:38:11.303Z,100807.94
2023-04-20T00:39:14.064Z,100805.94
2023-04-20T00:40:15.848Z,100807.56
2023-04-20T00:41:18.408Z,100808.75
2023-04-20T00:42:21.463Z,100803.06
2023-04-20T00:43:24.040Z,100809.09
2023-04-20T00:44:25.951Z,100800.84
2023-04-20T00:45:28.465Z,100801.56
2023-04-20T00:46:30.088Z,100806.28
2023-04-20T00:47:32.656Z,100800.72
2023-04-20T00:48:34.240Z,100804.97
2023-04-20T00:49:36.822Z,100800.16
2023-04-20T00:50:39.972Z,100794.06
2023-04-20T00:51:42.986Z,100796.75
2023-04-20T00:52:45.548Z,100801.03
2023-04-20T00:53:48.055Z,100799.34
2023-04-20T00:54:50.876Z,100795.94
2023-04-20T00:55:52.473Z,100795.94
2023-04-20T00:56:56.135Z,100791.88
2023-04-20T00:57:59.170Z,100795.22
2023-04-20T00:59:03.080Z,100798.00
2023-04-20T01:00:07.631Z,100788.47
2023-04-20T01:01:10.895Z,100796.78
2023-04-20T01:02:12.581Z,100800.47
2023-04-20T01:03:15.287Z,100800.72
2023-04-20T01:04:17.517Z,100804.00
2023-04-20T01:05:21.105Z,100783.16
2023-04-20T01:06:22.815Z,100787.09
2023-04-20T01:07:25.381Z,100789.72
2023-04-20T01:08:27.394Z,100783.78
2023-04-20T01:09:30.448Z,100786.44
2023-04-20T01:10:32.023Z,100786.97
2023-04-20T01:11:34.634Z,100790.31
2023-04-20T01:12:36.334Z,100793.41
2023-04-20T01:13:40.746Z,100793.88
2023-04-20T01:14:42.431Z,100791.66
2023-04-20T01:15:45.034Z,100781.88
2023-04-20T01:16:47.249Z,100787.50
2023-04-20T01:17:50.078Z,100783.97
2023-04-20T01:18:51.765Z,100785.53
2023-04-20T01:19:54.310Z,100780.63
2023-04-20T01:20:55.854Z,100781.69
2023-04-20T01:21:58.369Z,100774.94
2023-04-20T01:23:01.610Z,100777.78
2023-04-20T01:24:04.250Z,100779.09
2023-04-20T01:25:07.404Z,100779.88
2023-04-20T01:26:11.149Z,100767.03
2023-04-20T01:27:13.626Z,100766.59
2023-04-20T01:28:16.185Z,100769.53
2023-04-20T01:29:18.033Z,100768.34
2023-04-20T01:30:20.777Z,100757.31
2023-04-20T01:31:22.733Z,100764.81
2023-04-20T01:32:25.805Z,100761.13
2023-04-20T01:33:27.471Z,100759.00
2023-04-20T01:34:30.010Z,100756.59
2023-04-20T01:35:31.593Z,100752.41
2023-04-20T01:36:34.153Z,100757.72
2023-04-20T01:37:36.032Z,100752.72
2023-04-20T01:38:40.411Z,100754.22
2023-04-20T01:39:42.084Z,100759.16
2023-04-20T01:40:44.623Z,100760.72
2023-04-20T01:41:47.420Z,100761.44
2023-04-20T01:42:48.948Z,100755.69
2023-04-20T01:43:51.506Z,100756.56
2023-04-20T01:44:53.076Z,100755.75
2023-04-20T01:45:55.590Z,100753.38
2023-04-20T01:46:57.217Z,100756.47
2023-04-20T01:47:59.751Z,100753.06
2023-04-20T01:49:01.341Z,100749.00
2023-04-20T01:50:03.911Z,100756.94
2023-04-20T01:51:05.824Z,100755.81
2023-04-20T01:52:08.453Z,100744.56
2023-04-20T01:53:10.448Z,100753.31
2023-04-20T01:54:14.364Z,100752.69
2023-04-20T01:55:17.058Z,100753.22
2023-04-20T01:56:20.465Z,100757.63
2023-04-20T01:57:22.011Z,100745.06
2023-04-20T01:58:24.751Z,100752.47
2023-04-20T01:59:26.348Z,100748.38
2023-04-20T02:00:28.820Z,100747.56
2023-04-20T02:01:30.381Z,100752.31
2023-04-20T02:02:33.164Z,100750.47
2023-04-20T02:03:34.896Z,100749.03
2023-04-20T02:04:37.720Z,100753.16
2023-04-20T02:05:39.310Z,100755.19
2023-04-20T02:06:41.888Z,100755.22
2023-04-20T02:07:43.509Z,100745.28
2023-04-20T02:08:45.998Z,100746.13
2023-04-20T02:09:48.919Z,100754.59
2023-04-20T02:10:51.437Z,100755.97
2023-04-20T02:11:52.982Z,100760.25
2023-04-20T02:12:55.695Z,100745.56
2023-04-20T02:13:57.437Z,100750.66
2023-04-20T02:14:59.954Z,100747.28
2023-04-20T02:16:01.466Z,100751.75
2023-04-20T02:17:04.024Z,100752.78
2023-04-20T02:18:05.862Z,100752.97
2023-04-20T02:19:08.768Z,100754.94
2023-04-20T02:20:12.570Z,100756.94
2023-04-20T02:21:15.111Z,100753.38
2023-04-20T02:22:18.615Z,100747.56
2023-04-20T02:23:21.105Z,100749.19
2023-04-20T02:24:22.677Z,100751.50
2023-04-20T02:25:26.588Z,100755.94
2023-04-20T02:26:28.132Z,100759.00
2023-04-20T02:27:30.765Z,100748.78
2023-04-20T02:28:32.317Z,100755.94
2023-04-20T02:29:34.847Z,100751.69
2023-04-20T02:30:37.339Z,100750.78
2023-04-20T02:31:38.916Z,100740.25
2023-04-20T02:32:41.813Z,100741.97
2023-04-20T02:33:44.151Z,100747.81
2023-04-20T02:34:46.708Z,100749.88
2023-04-20T02:35:48.288Z,100748.00
2023-04-20T02:36:51.045Z,100755.91
2023-04-20T02:37:52.589Z,100754.16
2023-04-20T02:38:55.117Z,100757.16
2023-04-20T02:39:56.690Z,100753.94
2023-04-20T02:41:00.585Z,100747.06
2023-04-20T02:42:02.343Z,100748.13
2023-04-20T02:43:04.829Z,100751.31
2023-04-20T02:44:06.742Z,100746.78
2023-04-20T02:45:11.116Z,100748.63
2023-04-20T02:46:12.666Z,100745.94
2023-04-20T02:47:15.233Z,100749.59
2023-04-20T02:48:16.808Z,100745.34
2023-04-20T02:49:19.549Z,100743.00
2023-04-20T02:50:21.317Z,100739.38
2023-04-20T02:51:23.856Z,100744.03
2023-04-20T02:52:25.961Z,100737.97
2023-04-20T02:53:28.454Z,100743.81
2023-04-20T02:54:30.004Z,100729.91
2023-04-20T02:55:32.730Z,100737.22
2023-04-20T02:56:35.906Z,100731.59
2023-04-20T02:57:38.435Z,100737.78
2023-04-20T02:58:40.004Z,100735.13
2023-04-20T02:59:43.214Z,100733.34
2023-04-20T03:00:44.742Z,100739.63
2023-04-20T03:01:47.307Z,100740.16
2023-04-20T03:02:49.157Z,100736.22
2023-04-20T03:03:52.240Z,100729.53
2023-04-20T03:04:54.173Z,100738.84
2023-04-20T03:05:57.332Z,100746.78
2023-04-20T03:07:00.548Z,100737.09
2023-04-20T03:08:05.172Z,100749.94
2023-04-20T03:09:12.929Z,100743.13
2023-04-20T03:10:15.398Z,100756.91
2023-04-20T03:11:16.953Z,100737.66
2023-04-20T03:12:22.297Z,100743.47
2023-04-20T03:13:23.986Z,100748.78
2023-04-20T03:14:26.883Z,100752.53
2023-04-20T03:15:28.461Z,100749.38
2023-04-20T03:16:30.989Z,100753.03
2023-04-20T03:17:32.606Z,100753.41
2023-04-20T03:18:35.278Z,100750.44
2023-04-20T03:19:37.067Z,100748.91
2023-04-20T03:20:40.313Z,100750.53
2023-04-20T03:21:41.870Z,100749.16
2023-04-20T03:22:44.377Z,100743.84
2023-04-20T03:23:46.270Z,100746.22
2023-04-20T03:24:50.290Z,100748.09
2023-04-20T03:25:54.123Z,100753.13
2023-04-20T03:27:00.868Z,100753.50
2023-04-20T03:28:03.848Z,100750.31
2023-04-20T03:29:06.329Z,100752.44
2023-04-20T03:30:09.652Z,100751.28
2023-04-20T03:31:12.104Z,100754.19
2023-04-20T03:32:13.715Z,100751.97
2023-04-20T03:33:16.308Z,100757.25
2023-04-20T03:34:17.876Z,100756.31
2023-04-20T03:35:21.311Z,100754.78
2023-04-20T03:36:23.913Z,100752.66
2023-04-20T03:37:25.738Z,100753.59
2023-04-20T03:38:28.283Z,100757.97
2023-04-20T03:39:29.819Z,100750.78
2023-04-20T03:40:32.314Z,100755.50
2023-04-20T03:41:33.880Z,100760.78
2023-04-20T03:42:37.149Z,100761.94
2023-04-20T03:43:41.691Z,100758.22
2023-04-20T03:44:44.283Z,100757.28
2023-04-20T03:45:45.979Z,100766.19
2023-04-20T03:46:48.463Z,100757.13
2023-04-20T03:47:50.172Z,100755.22
2023-04-20T03:48:52.763Z,100760.53
2023-04-20T03:49:54.311Z,100761.13
2023-04-20T03:50:56.849Z,100759.72
2023-04-20T03:51:58.346Z,100755.81
2023-04-20T03:53:00.885Z,100747.94
2023-04-20T03:54:02.505Z,100758.00
2023-04-20T03:55:05.511Z,100755.28
2023-04-20T03:56:07.691Z,100750.16
2023-04-20T03:57:10.317Z,100749.75
2023-04-20T03:58:15.086Z,100755.09
2023-04-20T03:59:19.038Z,100756.53
2023-04-20T04:00:20.854Z,100757.59
2023-04-20T04:01:23.352Z,100754.06
2023-04-20T04:02:25.221Z,100755.34
2023-04-20T04:03:28.021Z,100754.69
2023-04-20T04:04:30.096Z,100749.25
2023-04-20T04:05:32.717Z,100753.16
2023-04-20T04:06:35.367Z,100757.69
2023-04-20T04:07:37.131Z,100753.47
2023-04-20T04:08:39.571Z,100746.00
2023-04-20T04:09:41.265Z,100752.97
2023-04-20T04:10:43.687Z,100751.91
2023-04-20T04:11:45.216Z,100760.50
2023-04-20T04:12:47.698Z,100754.72
2023-04-20T04:13:49.476Z,100758.50
2023-04-20T04:14:53.324Z,100744.97
2023-04-20T04:15:54.966Z,100750.28
2023-04-20T04:16:57.415Z,100748.81
2023-04-20T04:17:59.072Z,100750.09
2023-04-20T04:19:01.752Z,100753.44
2023-04-20T04:20:03.725Z,100756.66
2023-04-20T04:21:08.137Z,100747.06
2023-04-20T04:22:10.587Z,100754.63
2023-04-20T04:23:12.087Z,100758.16
2023-04-20T04:24:15.302Z,100757.22
2023-04-20T04:25:17.435Z,100759.56
2023-04-20T04:26:21.409Z,100762.16
2023-04-20T04:27:23.447Z,100757.34
2023-04-20T04:28:26.430Z,100757.13
2023-04-20T04:29:27.927Z,100755.84
2023-04-20T04:30:32.064Z,100767.84
2023-04-20T04:31:34.294Z,100764.31
2023-04-20T04:32:36.800Z,100762.88
2023-04-20T04:33:38.379Z,100771.09
2023-04-20T04:34:44.246Z,100756.72
2023-04-20T04:35:46.080Z,100768.88
2023-04-20T04:36:48.520Z,100768.84
2023-04-20T04:37:50.029Z,100763.78
2023-04-20T04:38:52.739Z,100770.50
2023-04-20T04:39:54.242Z,100760.72
2023-04-20T04:40:57.509Z,100765.47
2023-04-20T04:41:58.978Z,100767.34
2023-04-20T04:43:01.538Z,100770.19
2023-04-20T04:44:03.538Z,100770.50
2023-04-20T04:45:07.401Z,100766.63
2023-04-20T04:46:12.393Z,100767.47
2023-04-20T04:47:15.939Z,100774.50
2023-04-20T04:48:17.452Z,100769.88
2023-04-20T04:49:20.702Z,100775.53
2023-04-20T04:50:23.444Z,100767.00
2023-04-20T04:51:25.876Z,100766.59
2023-04-20T04:52:28.354Z,100770.00
2023-04-20T04:53:31.193Z,100768.47
2023-04-20T04:54:32.662Z,100780.16
2023-04-20T04:55:35.313Z,100771.63
2023-04-20T04:56:36.831Z,100767.00
2023-04-20T04:57:39.474Z,100769.75
2023-04-20T04:58:41.164Z,100768.59
2023-04-20T04:59:43.612Z,100766.72
2023-04-20T05:00:46.082Z,100769.66
2023-04-20T05:01:49.020Z,100765.88
2023-04-20T05:02:53.028Z,100766.47
2023-04-20T05:03:54.816Z,100767.19
2023-04-20T05:04:57.668Z,100774.19
2023-04-20T05:05:59.195Z,100774.50
2023-04-20T05:07:01.604Z,100777.25
2023-04-20T05:08:03.088Z,100774.34
2023-04-20T05:09:05.618Z,100778.66
2023-04-20T05:10:08.378Z,100777.94
2023-04-20T05:11:10.836Z,100776.72
2023-04-20T05:12:12.377Z,100777.75
2023-04-20T05:13:14.835Z,100777.97
2023-04-20T05:14:16.398Z,100781.09
2023-04-20T05:15:19.072Z,100778.19
2023-04-20T05:16:20.820Z,100780.75
2023-04-20T05:17:24.908Z,100778.13
2023-04-20T05:18:26.483Z,100780.31
2023-04-20T05:19:29.009Z,100784.72
2023-04-20T05:20:30.490Z,100780.91
2023-04-20T05:21:33.225Z,100786.16
2023-04-20T05:22:34.721Z,100784.38
2023-04-20T05:23:37.221Z,100775.66
2023-04-20T05:24:38.715Z,100782.06
2023-04-20T05:25:41.534Z,100788.59
2023-04-20T05:26:43.355Z,100782.66
2023-04-20T05:27:46.233Z,100785.91
2023-04-20T05:28:47.777Z,100785.66
2023-04-20T05:29:50.782Z,100792.50
2023-04-20T05:30:55.065Z,100792.50
2023-04-20T05:31:57.598Z,100792.56
2023-04-20T05:33:00.575Z,100790.84
2023-04-20T05:34:03.093Z,100795.00
2023-04-20T05:35:05.336Z,100802.09
2023-04-20T05:36:09.792Z,100792.19
2023-04-20T05:37:12.071Z,100788.63
2023-04-20T05:38:14.552Z,100792.38
2023-04-20T05:39:16.676Z,100797.22
2023-04-20T05:40:19.589Z,100800.22
2023-04-20T05:41:26.658Z,100802.50
2023-04-20T05:42:29.416Z,100799.47
2023-04-20T05:43:31.197Z,100803.97
2023-04-20T05:44:36.397Z,100812.44
2023-04-20T05:45:39.233Z,100803.38
2023-04-20T05:46:40.798Z,100796.69
2023-04-20T05:47:43.285Z,100807.97
2023-04-20T05:48:46.604Z,100809.44
2023-04-20T05:49:49.037Z,100815.06
2023-04-20T05:50:50.576Z,100808.56
2023-04-20T05:51:53.014Z,100813.78
2023-04-20T05:52:54.520Z,100812.00
2023-04-20T05:53:57.030Z,100810.25
2023-04-20T05:54:59.463Z,100809.28
2023-04-20T05:56:02.455Z,100810.13
2023-04-20T05:57:05.800Z,100811.69
2023-04-20T05:58:07.419Z,100814.59
2023-04-20T05:59:10.208Z,100810.44
2023-04-20T06:00:13.496Z,100813.47
2023-04-20T06:01:15.963Z,100816.22
2023-04-20T06:02:17.517Z,100814.78
2023-04-20T06:03:20.126Z,100809.22
2023-04-20T06:04:23.421Z,100808.34
2023-04-20T06:05:26.361Z,100815.75
2023-04-20T06:06:28.074Z,100816.09
2023-04-20T06:07:30.640Z,100821.31
2023-04-20T06:08:32.183Z,100826.03
2023-04-20T06:09:34.641Z,100828.50
2023-04-20T06:10:36.268Z,100819.44
2023-04-20T06:11:38.703Z,100825.06
2023-04-20T06:12:40.222Z,100824.03
2023-04-20T06:13:42.732Z,100819.31
2023-04-20T06:14:44.258Z,100824.25
2023-04-20T06:15:47.202Z,100824.03
2023-04-20T06:16:48.698Z,100829.44
2023-04-20T06:17:51.276Z,100834.84
2023-04-20T06:18:52.834Z,100832.16
2023-04-20T06:19:56.761Z,100840.13
2023-04-20T06:20:58.362Z,100843.91
2023-04-20T06:22:01.285Z,100842.63
2023-04-20T06:23:04.009Z,100841.56
2023-04-20T06:24:06.213Z,100839.44
2023-04-20T06:25:09.452Z,100835.69
2023-04-20T06:26:11.236Z,100831.69
2023-04-20T06:27:14.024Z,100832.50
2023-04-20T06:28:16.602Z,100834.72
2023-04-20T06:29:18.461Z,100832.50
2023-04-20T06:30:21.204Z,100844.59
2023-04-20T06:31:22.772Z,100842.47
2023-04-20T06:32:25.278Z,100850.13
2023-04-20T06:33:27.912Z,100845.94
2023-04-20T06:34:29.517Z,100855.31
2023-04-20T06:35:33.322Z,100852.75
2023-04-20T06:36:34.807Z,100853.06
2023-04-20T06:37:37.422Z,100860.88
2023-04-20T06:38:40.713Z,100857.22
2023-04-20T06:39:42.222Z,100861.91
2023-04-20T06:40:44.657Z,100855.31
2023-04-20T06:41:47.141Z,100855.78
2023-04-20T06:42:48.738Z,100854.59
2023-04-20T06:43:51.654Z,100854.88
2023-04-20T06:44:53.161Z,100854.38
2023-04-20T06:45:55.678Z,100852.84
2023-04-20T06:46:57.297Z,100851.06
2023-04-20T06:47:59.832Z,100851.31
2023-04-20T06:49:01.419Z,100851.81
2023-04-20T06:50:07.262Z,100850.25
2023-04-20T06:51:13.536Z,100856.84
2023-04-20T06:52:15.037Z,100859.78
2023-04-20T06:53:17.883Z,100853.91
2023-04-20T06:54:19.377Z,100854.03
2023-04-20T06:55:22.024Z,100854.25
2023-04-20T06:56:24.711Z,100850.00
2023-04-20T06:57:26.320Z,100850.72
2023-04-20T06:58:28.796Z,100852.69
2023-04-20T06:59:30.309Z,100848.44
2023-04-20T07:00:32.802Z,100837.34
2023-04-20T07:01:34.384Z,100846.50
2023-04-20T07:02:44.320Z,100842.19
2023-04-20T07:03:46.820Z,100853.50
2023-04-20T07:04:49.665Z,100837.13
2023-04-20T07:05:51.451Z,100835.88
2023-04-20T07:06:55.356Z,100839.75
2023-04-20T07:07:57.028Z,100834.41
2023-04-20T07:08:59.508Z,100837.06
2023-04-20T07:10:01.958Z,100836.59
2023-04-20T07:11:04.422Z,100843.03
2023-04-20T07:12:06.159Z,100835.59
2023-04-20T07:13:08.851Z,100830.41
2023-04-20T07:14:11.288Z,100840.09
2023-04-20T07:15:13.226Z,100834.66
2023-04-20T07:16:16.878Z,100842.47
2023-04-20T07:17:19.493Z,100838.31
2023-04-20T07:18:21.010Z,100831.22
2023-04-20T07:19:23.566Z,100833.34
2023-04-20T07:20:25.551Z,100842.00
2023-04-20T07:21:28.104Z,100834.91
2023-04-20T07:22:33.266Z,100844.72
2023-04-20T07:23:35.758Z,100834.91
2023-04-20T07:24:37.290Z,100841.66
2023-04-20T07:25:39.712Z,100843.03
2023-04-20T07:26:42.272Z,100833.00
2023-04-20T07:27:43.949Z,100840.66
2023-04-20T07:28:46.437Z,100830.81
2023-04-20T07:29:47.949Z,100831.44
2023-04-20T07:30:50.446Z,100834.50
2023-04-20T07:31:51.977Z,100834.16
2023-04-20T07:32:54.497Z,100833.75
2023-04-20T07:33:56.198Z,100834.16
2023-04-20T07:34:58.740Z,100836.78
2023-04-20T07:36:00.337Z,100846.00
2023-04-20T07:37:02.879Z,100836.81
2023-04-20T07:38:06.197Z,100831.38
2023-04-20T07:39:08.772Z,100832.38
2023-04-20T07:40:11.286Z,100834.09
2023-04-20T07:41:13.706Z,100828.69
2023-04-20T07:42:15.199Z,100836.53
2023-04-20T07:43:17.670Z,100838.16
2023-04-20T07:44:19.209Z,100841.97
2023-04-20T07:45:25.351Z,100835.38
2023-04-20T07:46:28.384Z,100840.72
2023-04-20T07:47:31.083Z,100839.09
2023-04-20T07:48:33.702Z,100838.97
2023-04-20T07:49:37.684Z,100840.06
2023-04-20T07:50:40.373Z,100848.44
2023-04-20T07:51:41.946Z,100836.97
2023-04-20T07:52:45.240Z,100835.47
2023-04-20T07:53:48.120Z,100838.31
2023-04-20T07:54:50.768Z,100849.44
2023-04-20T07:55:53.244Z,100842.97
2023-04-20T07:56:54.792Z,100842.16
2023-04-20T07:57:57.740Z,100845.78
2023-04-20T07:58:59.263Z,100844.53
2023-04-20T08:00:01.729Z,100851.19
2023-04-20T08:01:03.403Z,100850.84
2023-04-20T08:02:06.106Z,100849.38
2023-04-20T08:03:09.037Z,100854.19
2023-04-20T08:04:10.937Z,100848.66
2023-04-20T08:05:14.055Z,100841.84
2023-04-20T08:06:15.641Z,100844.09
2023-04-20T08:07:18.132Z,100846.09
2023-04-20T08:08:19.708Z,100846.72
2023-04-20T08:09:23.858Z,100843.69
2023-04-20T08:10:26.412Z,100845.84
2023-04-20T08:11:28.202Z,100854.75
2023-04-20T08:12:30.724Z,100855.72
2023-04-20T08:13:32.253Z,100855.91
2023-04-20T08:14:34.708Z,100847.66
2023-04-20T08:15:37.418Z,100846.06
2023-04-20T08:16:39.025Z,100846.38
2023-04-20T08:17:42.590Z,100842.88
2023-04-20T08:18:44.149Z,100839.25
2023-04-20T08:19:46.591Z,100841.50
2023-04-20T08:20:51.072Z,100846.16
2023-04-20T08:21:56.452Z,100844.03
2023-04-20T08:22:59.523Z,100838.94
2023-04-20T08:24:01.239Z,100840.03
2023-04-20T08:25:05.885Z,100845.69
2023-04-20T08:26:08.524Z,100843.06
2023-04-20T08:27:10.174Z,100844.81
2023-04-20T08:28:24.259Z,100849.81
2023-04-20T08:29:35.244Z,100852.72
2023-04-20T08:30:37.727Z,100853.25
2023-04-20T08:31:40.248Z,100851.63
2023-04-20T08:32:42.191Z,100845.28
2023-04-20T08:33:44.717Z,100848.09
2023-04-20T08:34:47.260Z,100850.66
2023-04-20T08:35:51.343Z,100856.50
2023-04-20T08:36:53.777Z,100854.56
2023-04-20T08:37:55.304Z,100856.31
2023-04-20T08:39:05.981Z,100851.34
2023-04-20T08:40:11.352Z,100853.97
2023-04-20T08:41:13.651Z,100856.34
2023-04-20T08:42:16.919Z,100859.09
2023-04-20T08:43:19.200Z,100853.69
2023-04-20T08:44:24.008Z,100857.81
2023-04-20T08:45:25.631Z,100854.06
2023-04-20T08:46:28.620Z,100841.56
2023-04-20T08:47:32.316Z,100836.91
2023-04-20T08:48:36.373Z,100848.94
2023-04-20T08:49:39.633Z,100841.84
2023-04-20T08:50:42.341Z,100852.31
2023-04-20T08:51:45.786Z,100857.00
2023-04-20T08:52:48.261Z,100852.25
2023-04-20T08:53:50.315Z,100842.56
2023-04-20T08:54:56.798Z,100851.06
2023-04-20T08:56:01.668Z,100852.69
2023-04-20T08:57:04.157Z,100838.00
2023-04-20T08:58:06.667Z,100835.88
2023-04-20T08:59:10.329Z,100844.66
2023-04-20T09:00:14.248Z,100845.06
2023-04-20T09:01:20.041Z,100844.44
2023-04-20T09:02:25.565Z,100833.09
2023-04-20T09:03:35.870Z,100838.19
2023-04-20T09:04:37.828Z,100840.28
2023-04-20T09:05:41.518Z,100839.56
2023-04-20T09:06:47.593Z,100836.16
2023-04-20T09:07:52.791Z,100838.25
2023-04-20T09:08:56.095Z,100844.94
2023-04-20T09:09:59.370Z,100832.94
2023-04-20T09:11:03.380Z,100835.06
2023-04-20T09:12:07.684Z,100841.25
2023-04-20T09:13:10.960Z,100835.72
2023-04-20T09:14:16.626Z,100837.28
2023-04-20T09:15:25.619Z,100841.44
2023-04-20T09:16:28.313Z,100841.59
2023-04-20T09:17:35.108Z,100845.78
2023-04-20T09:18:36.731Z,100844.41
2023-04-20T09:19:39.178Z,100854.91
2023-04-20T09:20:41.009Z,100845.69
2023-04-20T09:21:50.031Z,100846.44
2023-04-20T09:22:51.557Z,100843.16
2023-04-20T09:24:01.457Z,100846.91
2023-04-20T09:25:13.847Z,100854.72
2023-04-20T09:26:18.942Z,100847.88
2023-04-20T09:27:22.662Z,100839.69
2023-04-20T09:28:25.304Z,100837.34
2023-04-20T09:29:26.859Z,100831.81
2023-04-20T09:30:39.021Z,100834.88
2023-04-20T09:31:41.490Z,100842.66
2023-04-20T09:32:43.116Z,100844.16
2023-04-20T09:33:45.690Z,100853.13
2023-04-20T09:34:48.242Z,100853.28
2023-04-20T09:35:50.782Z,100853.25
2023-04-20T09:36:55.928Z,100851.31
2023-04-20T09:37:57.655Z,100852.81
2023-04-20T09:39:04.821Z,100848.25
2023-04-20T09:40:09.181Z,100851.06
2023-04-20T09:41:11.925Z,100844.34
2023-04-20T09:42:16.321Z,100848.56
2023-04-20T09:43:20.044Z,100850.47
2023-04-20T09:44:22.586Z,100852.13
2023-04-20T09:45:25.478Z,100847.25
2023-04-20T09:46:30.503Z,100838.69
2023-04-20T09:47:36.747Z,100846.88
2023-04-20T09:48:38.349Z,100849.75
2023-04-20T09:49:41.082Z,100846.53
2023-04-20T09:50:49.700Z,100846.53
2023-04-20T09:51:53.494Z,100845.63
2023-04-20T09:52:55.356Z,100853.97
2023-04-20T09:53:58.650Z,100858.97
2023-04-20T09:55:00.404Z,100850.78
2023-04-20T09:56:03.384Z,100850.09
2023-04-20T09:57:06.010Z,100849.28
2023-04-20T09:58:09.839Z,100850.81
2023-04-20T09:59:12.668Z,100852.78
2023-04-20T10:00:15.241Z,100855.25
2023-04-20T10:01:18.009Z,100851.84
2023-04-20T10:02:19.851Z,100852.78
2023-04-20T10:03:22.603Z,100854.09
2023-04-20T10:04:24.627Z,100856.44
2023-04-20T10:05:35.716Z,100854.31
2023-04-20T10:06:38.986Z,100853.44
2023-04-20T10:07:44.378Z,100851.19
2023-04-20T10:08:47.596Z,100850.16
2023-04-20T10:09:49.377Z,100853.34
2023-04-20T10:10:52.399Z,100853.50
2023-04-20T10:12:05.588Z,100849.59
2023-04-20T10:13:08.103Z,100850.91
2023-04-20T10:14:20.762Z,100850.25
2023-04-20T10:15:24.990Z,100858.22
2023-04-20T10:16:28.151Z,100850.09
2023-04-20T10:17:30.908Z,100839.09
2023-04-20T10:18:33.769Z,100844.84
2023-04-20T10:19:40.911Z,100832.28
2023-04-20T10:20:43.732Z,100841.09
2023-04-20T10:21:48.347Z,100846.81
2023-04-20T10:22:51.254Z,100838.84
2023-04-20T10:23:54.591Z,100835.50
2023-04-20T10:24:56.408Z,100833.63
2023-04-20T10:26:01.129Z,100835.38
2023-04-20T10:27:04.025Z,100838.28
2023-04-20T10:28:09.739Z,100826.22
2023-04-20T10:29:13.305Z,100830.09
2023-04-20T10:30:17.940Z,100831.00
2023-04-20T10:31:22.022Z,100824.47
2023-04-20T10:32:25.315Z,100823.28
2023-04-20T10:33:28.184Z,100822.06
2023-04-20T10:34:31.145Z,100826.22
2023-04-20T10:35:46.147Z,100813.72
2023-04-20T10:36:48.662Z,100821.81
2023-04-20T10:37:51.703Z,100816.88
2023-04-20T10:38:57.216Z,100818.84
2023-04-20T10:40:00.192Z,100812.56
2023-04-20T10:41:08.320Z,100818.09
2023-04-20T10:42:22.912Z,100821.63
2023-04-20T10:43:24.489Z,100812.66
2023-04-20T10:44:27.527Z,100815.41
2023-04-20T10:45:37.114Z,100818.56
2023-04-20T10:46:39.895Z,100813.72
2023-04-20T10:47:41.715Z,100814.00
2023-04-20T10:48:54.410Z,100812.78
2023-04-20T10:50:06.694Z,100814.50
2023-04-20T10:51:10.395Z,100813.19
2023-04-20T10:52:13.026Z,100819.22
2023-04-20T10:53:19.531Z,100806.97
2023-04-20T10:54:22.044Z,100802.31
2023-04-20T10:55:25.517Z,100798.81
2023-04-20T10:56:28.073Z,100796.19
2023-04-20T10:57:33.830Z,100791.31
2023-04-20T10:58:35.343Z,100793.53
2023-04-20T10:59:39.028Z,100792.94
2023-04-20T11:00:43.150Z,100788.03
2023-04-20T11:01:47.139Z,100789.09
2023-04-20T11:02:50.270Z,100790.72
2023-04-20T11:03:53.035Z,100790.78
2023-04-20T11:05:01.020Z,100790.78
2023-04-20T11:06:03.996Z,100777.13
2023-04-20T11:07:08.952Z,100776.03
2023-04-20T11:08:16.723Z,100785.25
2023-04-20T11:09:20.856Z,100782.97
2023-04-20T11:10:25.895Z,100780.63
2023-04-20T11:11:28.291Z,100780.34
2023-04-20T11:12:39.538Z,100776.72
2023-04-20T11:13:41.054Z,100778.69
2023-04-20T11:14:53.100Z,100771.13
2023-04-20T11:15:56.173Z,100770.22
2023-04-20T11:16:58.983Z,100776.34
2023-04-20T11:18:07.707Z,100769.91
2023-04-20T11:19:10.291Z,100767.72
2023-04-20T11:20:16.289Z,100770.38
2023-04-20T11:21:21.799Z,100765.25
2023-04-20T11:22:24.421Z,100759.28
2023-04-20T11:23:37.751Z,100768.16
2023-04-20T11:24:41.304Z,100760.53
2023-04-20T11:25:49.153Z,100760.84
2023-04-20T11:26:54.126Z,100769.25
2023-04-20T11:28:05.306Z,100772.06
2023-04-20T11:29:08.325Z,100764.88
2023-04-20T11:30:11.291Z,100768.66
2023-04-20T11:31:18.655Z,100759.88
2023-04-20T11:32:21.437Z,100748.44
2023-04-20T11:33:29.254Z,100756.97
2023-04-20T11:34:31.928Z,100759.88
2023-04-20T11:35:38.780Z,100762.19
2023-04-20T11:36:41.730Z,100754.56
2023-04-20T11:37:46.981Z,100758.97
2023-04-20T11:38:50.853Z,100757.09
2023-04-20T11:39:59.741Z,100749.19
2023-04-20T11:41:05.449Z,100751.47
2023-04-20T11:42:10.468Z,100748.19
2023-04-20T11:43:12.015Z,100750.91
2023-04-20T11:44:15.332Z,100755.19
2023-04-20T11:45:18.584Z,100751.38
2023-04-20T11:46:21.523Z,100744.06
2023-04-20T11:47:24.220Z,100756.28
2023-04-20T11:48:26.005Z,100758.00
2023-04-20T11:49:29.730Z,100752.22
2023-04-20T11:50:32.307Z,100751.94
2023-04-20T11:51:33.812Z,100754.84
2023-04-20T11:52:38.644Z,100763.34
2023-04-20T11:53:40.786Z,100754.50
2023-04-20T11:54:43.270Z,100754.50
2023-04-20T11:55:44.915Z,100756.41
2023-04-20T11:56:47.718Z,100757.25
2023-04-20T11:57:51.619Z,100756.66
2023-04-20T11:58:53.392Z,100757.69
2023-04-20T11:59:56.108Z,100762.47